Meath Environmental Platform

Observations for Trim Market St

Time AQI Temp °C Hum % Pres Pa CO μg/m³ H₂S μg/m³ NO μg/m³ NO₂ μg/m³ O₃ μg/m³ SO₂ μg/m³ PM1 μg/m³ PM2.5 μg/m³ PM10 μg/m³
Monday 17 August 2026
23:24 2 20 83 2,147,483,647 0.04 0 2.18 0 43.08 0 0 1.05 3.67
23:19 2 20 83 2,147,483,647 0.03 0 2.31 0 47.13 0 0 1.52 4.22
23:17 2 20 83 2,147,483,647 0.05 0 2.3 0 46.59 0 0 1.05 3.68
23:10 2 20 83 2,147,483,647 0.03 0 2.35 0 41.57 0 0 1.04 3.68
23:08 2 20 83 2,147,483,647 0.04 0 2.37 0 51.79 0 0 1.04 3.68
23:05 2 20 83 2,147,483,647 0.04 0 2.31 0 48.67 0 0 0.57 3.14
23:04 2 20 83 2,147,483,647 0.04 0 2.31 0 52.19 0 0 1.04 4.23
23:03 2 20 83 2,147,483,647 0.04 0 2.27 0.52 49.86 0 0 1.04 3.68
23:02 2 20 83 2,147,483,647 0.04 0 2.24 0 43.18 0 0 0.57 3.14
23:01 2 20 83 2,147,483,647 0.05 0 2.31 2.87 51.96 0 0 1.03 3.69
23:00 2 20 83 2,147,483,647 0.05 0 2.33 0 51.84 0 0 1.03 3.69
22:59 2 20 83 2,147,483,647 0.04 0 2.37 0 43.65 0 0 0.57 3.14
22:58 2 20 83 2,147,483,647 0.05 0 2.38 0 47.18 0 0 0.57 3.14
22:57 2 20 83 2,147,483,647 0.03 0 2.38 0 40.44 0 0 0.56 3.14
22:56 2 20 83 2,147,483,647 0.04 0 2.37 0 43.11 0 0 0.57 4.24
22:55 2 20 83 2,147,483,647 0.03 0 2.37 0.53 47.34 0 0 0.56 3.14
22:54 2 20 83 2,147,483,647 0.05 0 2.36 3.57 51.42 0 0 0.56 3.14
22:53 2 19.9 83 2,147,483,647 0.07 0 2.33 0.95 54.66 0 0 0.56 3.14
22:52 2 19.9 83 2,147,483,647 0.06 0 2.33 0 42.33 0 0.71 1.03 3.69
22:50 2 19.9 83 2,147,483,647 0.04 0 2.36 0 40.96 0 0 1.03 4.79